createdAt,value
2017-09-19T00:00:43.849Z,57
2017-09-19T00:01:46.241Z,57
2017-09-19T00:02:48.626Z,57.1
2017-09-19T00:03:51.016Z,57
2017-09-19T00:04:53.412Z,57.1
2017-09-19T00:05:55.800Z,57
2017-09-19T00:06:58.191Z,57.1
2017-09-19T00:08:00.575Z,57
2017-09-19T00:09:02.966Z,57
2017-09-19T00:10:05.365Z,57.1
2017-09-19T00:11:07.751Z,57.1
2017-09-19T00:12:10.133Z,57
2017-09-19T00:13:12.883Z,57.1
2017-09-19T00:14:15.278Z,57.1
2017-09-19T00:15:17.671Z,57.1
2017-09-19T00:16:20.064Z,57.1
2017-09-19T00:17:22.450Z,57.1
2017-09-19T00:18:24.832Z,57.1
2017-09-19T00:19:27.221Z,57.1
2017-09-19T00:20:29.616Z,57.1
2017-09-19T00:21:32.003Z,57.1
2017-09-19T00:22:34.726Z,57.2
2017-09-19T00:23:37.120Z,57
2017-09-19T00:24:39.519Z,57.1
2017-09-19T00:25:41.913Z,57.2
2017-09-19T00:26:44.306Z,57.1
2017-09-19T00:27:47.031Z,57.1
2017-09-19T00:28:49.425Z,57.2
2017-09-19T00:29:51.818Z,57.2
2017-09-19T00:30:54.211Z,57.2
2017-09-19T00:31:56.929Z,57.3
2017-09-19T00:32:59.316Z,57.2
2017-09-19T00:34:01.702Z,57.2
2017-09-19T00:35:04.092Z,57.2
2017-09-19T00:36:06.477Z,57.3
2017-09-19T00:37:08.862Z,57.3
2017-09-19T00:38:11.246Z,57.4
2017-09-19T00:39:13.633Z,57.3
2017-09-19T00:40:16.025Z,57.3
2017-09-19T00:41:18.417Z,57.3
2017-09-19T00:42:20.804Z,57.3
2017-09-19T00:43:23.192Z,57.2
2017-09-19T00:44:25.583Z,57.2
2017-09-19T00:45:27.977Z,57.3
2017-09-19T00:46:30.367Z,57.3
2017-09-19T00:47:32.749Z,57.4
2017-09-19T00:48:35.134Z,57.5
2017-09-19T00:49:37.521Z,57.5
2017-09-19T00:50:39.906Z,57.5
2017-09-19T00:51:42.298Z,57.5
2017-09-19T00:52:44.688Z,57.5
2017-09-19T00:53:47.075Z,57.4
2017-09-19T00:54:49.824Z,57.6
2017-09-19T00:55:52.533Z,57.6
2017-09-19T00:56:54.909Z,57.6
2017-09-19T00:57:57.300Z,57.4
2017-09-19T00:58:59.696Z,57.4
2017-09-19T01:00:02.084Z,57.4
2017-09-19T01:01:04.480Z,57.5
2017-09-19T01:02:06.865Z,57.5
2017-09-19T01:03:09.590Z,57.5
2017-09-19T01:04:12.322Z,57.5
2017-09-19T01:05:14.714Z,57.5
2017-09-19T01:06:17.095Z,57.6
2017-09-19T01:07:19.479Z,57.5
2017-09-19T01:08:21.866Z,57.5
2017-09-19T01:09:24.260Z,57.6
2017-09-19T01:10:26.652Z,57.6
2017-09-19T01:11:29.043Z,57.6
2017-09-19T01:12:31.422Z,57.6
2017-09-19T01:13:33.810Z,57.6
2017-09-19T01:14:36.205Z,57.6
2017-09-19T01:15:38.594Z,57.6
2017-09-19T01:16:40.973Z,57.6
2017-09-19T01:17:43.362Z,57.6
2017-09-19T01:18:45.749Z,57.7
2017-09-19T01:19:48.146Z,57.6
2017-09-19T01:20:50.535Z,57.6
2017-09-19T01:21:52.926Z,57.7
2017-09-19T01:22:55.307Z,57.7
2017-09-19T01:23:57.704Z,57.8
2017-09-19T01:25:00.090Z,57.8
2017-09-19T01:26:02.475Z,57.9
2017-09-19T01:27:04.859Z,57.9
2017-09-19T01:28:07.248Z,57.9
2017-09-19T01:29:09.980Z,57.9
2017-09-19T01:30:12.712Z,57.8
2017-09-19T01:31:15.088Z,58
2017-09-19T01:32:17.477Z,58
2017-09-19T01:33:19.872Z,57.9
2017-09-19T01:34:22.594Z,57.9
2017-09-19T01:35:24.984Z,58
2017-09-19T01:36:27.364Z,57.9
2017-09-19T01:37:29.754Z,57.9
2017-09-19T01:38:32.144Z,58
2017-09-19T01:39:34.545Z,57.9
2017-09-19T01:40:36.928Z,57.9
2017-09-19T01:41:39.323Z,58
2017-09-19T01:42:41.718Z,58.1
2017-09-19T01:43:44.107Z,58.1
2017-09-19T01:44:46.495Z,58
2017-09-19T01:45:48.877Z,58
2017-09-19T01:46:51.257Z,58.1
2017-09-19T01:47:53.993Z,58.2
2017-09-19T01:48:56.366Z,58.2
2017-09-19T01:49:58.763Z,58.2
2017-09-19T01:51:01.492Z,58.2
2017-09-19T01:52:03.878Z,58.3
2017-09-19T01:53:06.268Z,58.2
2017-09-19T01:54:08.662Z,58.2
2017-09-19T01:55:11.053Z,58.1
2017-09-19T01:56:13.456Z,58.3
2017-09-19T01:57:15.840Z,58.3
2017-09-19T01:58:18.224Z,58.3
2017-09-19T01:59:20.622Z,58.4
2017-09-19T02:00:23.006Z,58.4
2017-09-19T02:01:25.389Z,58.4
2017-09-19T02:02:27.781Z,58.4
2017-09-19T02:03:30.172Z,58.4
2017-09-19T02:04:32.553Z,58.4
2017-09-19T02:05:34.940Z,58.4
2017-09-19T02:06:37.327Z,58.4
2017-09-19T02:07:39.714Z,58.4
2017-09-19T02:08:42.103Z,58.4
2017-09-19T02:09:44.489Z,58.4
2017-09-19T02:10:46.880Z,58.4
2017-09-19T02:11:49.280Z,58.4
2017-09-19T02:12:51.671Z,58.4
2017-09-19T02:13:54.049Z,58.4
2017-09-19T02:14:56.439Z,58.4
2017-09-19T02:15:59.161Z,58.3
2017-09-19T02:17:01.550Z,58.4
2017-09-19T02:18:03.934Z,58.4
2017-09-19T02:19:06.321Z,58.4
2017-09-19T02:20:09.068Z,58.3
2017-09-19T02:21:11.460Z,58.3
2017-09-19T02:22:13.849Z,58.4
2017-09-19T02:23:16.228Z,58.4
2017-09-19T02:24:18.619Z,58.4
2017-09-19T02:25:21.346Z,58.5
2017-09-19T02:26:23.736Z,58.5
2017-09-19T02:27:26.117Z,58.6
2017-09-19T02:28:28.500Z,58.6
2017-09-19T02:29:30.892Z,58.6
2017-09-19T02:30:33.284Z,58.6
2017-09-19T02:31:35.670Z,58.6
2017-09-19T02:32:38.069Z,58.6
2017-09-19T02:33:40.452Z,58.5
2017-09-19T02:34:42.840Z,58.4
2017-09-19T02:35:45.229Z,58.5
2017-09-19T02:36:47.622Z,58.5
2017-09-19T02:37:50.020Z,58.6
2017-09-19T02:38:52.406Z,58.6
2017-09-19T02:39:54.795Z,58.6
2017-09-19T02:40:57.175Z,58.6
2017-09-19T02:41:59.925Z,58.6
2017-09-19T02:43:02.319Z,58.6
2017-09-19T02:44:04.703Z,58.7
2017-09-19T02:45:07.082Z,58.7
2017-09-19T02:46:09.471Z,58.8
2017-09-19T02:47:11.869Z,58.7
2017-09-19T02:48:14.599Z,58.8
2017-09-19T02:49:16.991Z,58.8
2017-09-19T02:50:19.717Z,58.8
2017-09-19T02:51:22.112Z,58.8
2017-09-19T02:52:24.837Z,58.9
2017-09-19T02:53:27.226Z,59
2017-09-19T02:54:29.607Z,59
2017-09-19T02:55:32.355Z,59.1
2017-09-19T02:56:34.740Z,59.2
2017-09-19T02:57:37.125Z,59.2
2017-09-19T02:58:39.515Z,59.1
2017-09-19T02:59:41.904Z,59.1
2017-09-19T03:00:44.638Z,59.1
2017-09-19T03:01:47.030Z,59.1
2017-09-19T03:02:49.761Z,59.1
2017-09-19T03:03:52.138Z,59.1
2017-09-19T03:04:54.529Z,59
2017-09-19T03:05:56.931Z,59
2017-09-19T03:06:59.316Z,59.1
2017-09-19T03:08:01.705Z,58.9
2017-09-19T03:09:04.096Z,58.9
2017-09-19T03:10:06.472Z,58.9
2017-09-19T03:11:08.875Z,59
2017-09-19T03:12:11.255Z,59
2017-09-19T03:13:13.645Z,58.9
2017-09-19T03:14:16.376Z,58.9
2017-09-19T03:15:19.436Z,58.9
2017-09-19T03:16:21.822Z,59
2017-09-19T03:17:24.212Z,59
2017-09-19T03:18:26.598Z,58.9
2017-09-19T03:19:28.988Z,59
2017-09-19T03:20:31.379Z,59
2017-09-19T03:21:33.770Z,59
2017-09-19T03:22:36.149Z,59
2017-09-19T03:23:38.534Z,59
2017-09-19T03:24:40.920Z,59
2017-09-19T03:25:43.311Z,58.9
2017-09-19T03:26:45.710Z,59
2017-09-19T03:27:48.094Z,58.9
2017-09-19T03:28:50.483Z,59
2017-09-19T03:29:52.879Z,59
2017-09-19T03:30:55.609Z,59
2017-09-19T03:31:57.996Z,59
2017-09-19T03:33:00.723Z,59.1
2017-09-19T03:34:03.112Z,59.1
2017-09-19T03:35:05.507Z,59.1
2017-09-19T03:36:08.234Z,59.1
2017-09-19T03:37:10.612Z,59
2017-09-19T03:38:12.994Z,59
2017-09-19T03:39:15.380Z,59.1
2017-09-19T03:40:17.773Z,59.1
2017-09-19T03:41:20.159Z,59.1
2017-09-19T03:42:22.544Z,59.1
2017-09-19T03:43:24.938Z,59.1
2017-09-19T03:44:28.012Z,59.1
2017-09-19T03:45:30.404Z,59.2
2017-09-19T03:46:33.128Z,59.1
2017-09-19T03:47:35.524Z,59.2
2017-09-19T03:48:37.910Z,59.1
2017-09-19T03:49:40.298Z,59.2
2017-09-19T03:50:42.682Z,59.2
2017-09-19T03:51:45.064Z,59.2
2017-09-19T03:52:47.449Z,59.2
2017-09-19T03:53:49.831Z,59.2
2017-09-19T03:54:52.215Z,59.2
2017-09-19T03:55:54.951Z,59.2
2017-09-19T03:56:57.351Z,59.2
2017-09-19T03:57:59.742Z,59.2
2017-09-19T03:59:02.129Z,59.2
2017-09-19T04:00:04.515Z,59.2
2017-09-19T04:01:06.907Z,59.3
2017-09-19T04:02:09.292Z,59.2
2017-09-19T04:03:11.688Z,59.3
2017-09-19T04:04:14.070Z,59.4
2017-09-19T04:05:16.460Z,59.4
2017-09-19T04:06:18.850Z,59.4
2017-09-19T04:07:21.243Z,59.4
2017-09-19T04:08:23.629Z,59.4
2017-09-19T04:09:26.031Z,59.4
2017-09-19T04:10:28.409Z,59.4
2017-09-19T04:11:30.805Z,59.4
2017-09-19T04:12:33.202Z,59.4
2017-09-19T04:13:35.589Z,59.4
2017-09-19T04:14:37.977Z,59.3
2017-09-19T04:15:40.369Z,59.3
2017-09-19T04:16:42.748Z,59.3
2017-09-19T04:17:45.484Z,59.3
2017-09-19T04:18:47.861Z,59.3
2017-09-19T04:19:50.240Z,59.3
2017-09-19T04:20:52.638Z,59.3
2017-09-19T04:21:55.020Z,59.3
2017-09-19T04:22:57.407Z,59.3
2017-09-19T04:23:59.803Z,59.3
2017-09-19T04:25:02.188Z,59.3
2017-09-19T04:26:04.580Z,59.4
2017-09-19T04:27:06.980Z,59.4
2017-09-19T04:28:09.359Z,59.4
2017-09-19T04:29:11.743Z,59.4
2017-09-19T04:30:14.136Z,59.4
2017-09-19T04:31:16.516Z,59.4
2017-09-19T04:32:18.893Z,59.4
2017-09-19T04:33:21.281Z,59.4
2017-09-19T04:34:23.672Z,59.4
2017-09-19T04:35:26.405Z,59.4
2017-09-19T04:36:28.791Z,59.5
2017-09-19T04:37:31.185Z,59.5
2017-09-19T04:38:33.906Z,59.4
2017-09-19T04:39:36.302Z,59.6
2017-09-19T04:40:38.688Z,59.5
2017-09-19T04:41:41.076Z,59.5
2017-09-19T04:42:43.454Z,59.6
2017-09-19T04:43:45.851Z,59.5
2017-09-19T04:44:48.235Z,59.6
2017-09-19T04:45:50.618Z,59.6
2017-09-19T04:46:53.006Z,59.5
2017-09-19T04:47:55.391Z,59.7
2017-09-19T04:48:57.787Z,59.6
2017-09-19T04:50:00.520Z,59.6
2017-09-19T04:51:02.897Z,59.7
2017-09-19T04:52:05.295Z,59.7
2017-09-19T04:53:07.693Z,59.6
2017-09-19T04:54:10.071Z,59.6
2017-09-19T04:55:12.468Z,59.6
2017-09-19T04:56:14.851Z,59.6
2017-09-19T04:57:17.235Z,59.7
2017-09-19T04:58:19.625Z,59.7
2017-09-19T04:59:22.010Z,59.6
2017-09-19T05:00:24.386Z,59.5
2017-09-19T05:01:26.780Z,59.6
2017-09-19T05:02:29.166Z,59.5
2017-09-19T05:03:31.559Z,59.5
2017-09-19T05:04:33.985Z,59.5
2017-09-19T05:05:36.350Z,59.6
2017-09-19T05:06:39.074Z,59.6
2017-09-19T05:07:41.450Z,59.6
2017-09-19T05:08:43.848Z,59.5
2017-09-19T05:09:46.236Z,59.6
2017-09-19T05:10:48.620Z,59.6
2017-09-19T05:11:51.009Z,59.6
2017-09-19T05:12:53.391Z,59.7
2017-09-19T05:13:55.775Z,59.6
2017-09-19T05:14:58.172Z,59.6
2017-09-19T05:16:00.558Z,59.6
2017-09-19T05:17:02.940Z,59.7
2017-09-19T05:18:05.336Z,59.7
2017-09-19T05:19:07.719Z,59.7
2017-09-19T05:20:10.112Z,59.7
2017-09-19T05:21:12.505Z,59.7
2017-09-19T05:22:14.896Z,59.8
2017-09-19T05:23:17.283Z,59.8
2017-09-19T05:24:19.675Z,59.8
2017-09-19T05:25:22.390Z,59.8
2017-09-19T05:26:24.786Z,59.9
2017-09-19T05:27:27.176Z,59.9
2017-09-19T05:28:29.561Z,59.9
2017-09-19T05:29:31.951Z,59.9
2017-09-19T05:30:34.339Z,59.8
2017-09-19T05:31:36.724Z,59.8
2017-09-19T05:32:39.116Z,59.8
2017-09-19T05:33:41.510Z,59.8
2017-09-19T05:34:43.903Z,59.8
2017-09-19T05:35:46.285Z,59.9
2017-09-19T05:36:48.672Z,59.8
2017-09-19T05:37:51.056Z,59.9
2017-09-19T05:38:53.478Z,59.9
2017-09-19T05:39:55.835Z,59.8
2017-09-19T05:40:58.574Z,59.9
2017-09-19T05:42:00.966Z,59.9
2017-09-19T05:43:03.354Z,59.9
2017-09-19T05:44:05.745Z,59.9
2017-09-19T05:45:08.135Z,60
2017-09-19T05:46:10.525Z,59.9
2017-09-19T05:47:12.911Z,60
2017-09-19T05:48:15.296Z,60
2017-09-19T05:49:17.692Z,59.9
2017-09-19T05:50:20.411Z,60
2017-09-19T05:51:22.803Z,60
2017-09-19T05:52:25.191Z,60
2017-09-19T05:53:27.583Z,60
2017-09-19T05:54:29.967Z,60
2017-09-19T05:55:32.352Z,60
2017-09-19T05:56:34.732Z,60
2017-09-19T05:57:37.137Z,60
2017-09-19T05:58:39.527Z,60
2017-09-19T05:59:41.915Z,60.1
2017-09-19T06:00:44.636Z,60.1
2017-09-19T06:01:47.028Z,60.1
2017-09-19T06:02:49.751Z,60.1
2017-09-19T06:03:52.162Z,60.2
2017-09-19T06:04:54.873Z,60.2
2017-09-19T06:05:57.263Z,60.3
2017-09-19T06:06:59.637Z,60.3
2017-09-19T06:08:02.035Z,60.2
2017-09-19T06:09:04.424Z,60.4
2017-09-19T06:10:06.813Z,60.3
2017-09-19T06:11:09.205Z,60.4
2017-09-19T06:12:11.592Z,60.2
2017-09-19T06:13:14.677Z,60.2
2017-09-19T06:14:17.771Z,60.3
2017-09-19T06:15:20.149Z,60.2
2017-09-19T06:16:22.536Z,60.4
2017-09-19T06:17:24.927Z,60.4
2017-09-19T06:18:27.320Z,60.3
2017-09-19T06:19:29.712Z,60.5
2017-09-19T06:20:32.106Z,60.5
2017-09-19T06:21:34.486Z,60.5
2017-09-19T06:22:36.879Z,60.5
2017-09-19T06:23:39.270Z,60.5
2017-09-19T06:24:41.660Z,60.6
2017-09-19T06:25:44.403Z,60.5
2017-09-19T06:26:46.793Z,60.6
2017-09-19T06:27:49.183Z,60.5
2017-09-19T06:28:51.577Z,60.6
2017-09-19T06:29:53.967Z,60.5
2017-09-19T06:30:56.351Z,60.6
2017-09-19T06:31:59.080Z,60.6
2017-09-19T06:33:01.481Z,60.5
2017-09-19T06:34:03.877Z,60.4
2017-09-19T06:35:06.946Z,60.5
2017-09-19T06:36:09.337Z,60.4
2017-09-19T06:37:11.730Z,60.3
2017-09-19T06:38:14.128Z,60.2
2017-09-19T06:39:16.860Z,60.4
2017-09-19T06:40:19.246Z,60.3
2017-09-19T06:41:21.633Z,60.4
2017-09-19T06:42:24.023Z,60.4
2017-09-19T06:43:26.408Z,60.4
2017-09-19T06:44:28.797Z,60.4
2017-09-19T06:45:31.521Z,60.4
2017-09-19T06:46:33.916Z,60.3
2017-09-19T06:47:36.316Z,60.3
2017-09-19T06:48:38.706Z,60.3
2017-09-19T06:49:41.100Z,60.4
2017-09-19T06:50:43.484Z,60.5
2017-09-19T06:51:45.877Z,60.4
2017-09-19T06:52:48.272Z,60.3
2017-09-19T06:53:50.664Z,60.4
2017-09-19T06:54:53.045Z,60.1
2017-09-19T06:55:55.433Z,60.1
2017-09-19T06:56:57.830Z,60.1
2017-09-19T06:58:00.555Z,60.1
2017-09-19T06:59:02.958Z,60.2
2017-09-19T07:00:05.336Z,60.2
2017-09-19T07:01:07.728Z,60.3
2017-09-19T07:02:10.118Z,60.3
2017-09-19T07:03:12.510Z,60.3
2017-09-19T07:04:14.897Z,60.5
2017-09-19T07:05:17.328Z,60.4
2017-09-19T07:06:19.675Z,60.4
2017-09-19T07:07:22.068Z,60.5
2017-09-19T07:08:24.461Z,60.5
2017-09-19T07:09:26.847Z,60.5
2017-09-19T07:10:29.231Z,60.4
2017-09-19T07:11:31.625Z,60.6
2017-09-19T07:12:34.015Z,60.5
2017-09-19T07:13:36.412Z,60.5
2017-09-19T07:14:38.802Z,60.5
2017-09-19T07:15:41.200Z,60.5
2017-09-19T07:16:43.588Z,60.5
2017-09-19T07:17:45.986Z,60.6
2017-09-19T07:18:48.376Z,60.5
2017-09-19T07:19:50.768Z,60.6
2017-09-19T07:20:53.153Z,60.5
2017-09-19T07:21:55.545Z,60.5
2017-09-19T07:22:57.930Z,60.6
2017-09-19T07:24:00.327Z,60.6
2017-09-19T07:25:02.713Z,60.6
2017-09-19T07:26:05.444Z,60.6
2017-09-19T07:27:07.837Z,60.7
2017-09-19T07:28:10.238Z,60.7
2017-09-19T07:29:12.966Z,60.7
2017-09-19T07:30:15.352Z,60.5
2017-09-19T07:31:17.752Z,60.6
2017-09-19T07:32:20.137Z,60.8
2017-09-19T07:33:22.531Z,60.9
2017-09-19T07:34:24.929Z,60.8
2017-09-19T07:35:27.317Z,60.8
2017-09-19T07:36:29.709Z,60.9
2017-09-19T07:37:32.105Z,60.8
2017-09-19T07:38:34.492Z,60.8
2017-09-19T07:39:36.899Z,60.8
2017-09-19T07:40:39.298Z,60.9
2017-09-19T07:41:41.689Z,61
2017-09-19T07:42:44.082Z,61
2017-09-19T07:43:46.472Z,60.9
2017-09-19T07:44:49.207Z,60.8
2017-09-19T07:45:52.282Z,60.9
2017-09-19T07:46:54.665Z,60.8
2017-09-19T07:47:57.054Z,60.6
2017-09-19T07:48:59.439Z,60.7
2017-09-19T07:50:01.831Z,60.6
2017-09-19T07:51:04.224Z,60.5
2017-09-19T07:52:06.962Z,60.5
2017-09-19T07:53:09.727Z,60.5
2017-09-19T07:54:12.102Z,60.5
2017-09-19T07:55:14.498Z,60.1
2017-09-19T07:56:16.887Z,60.2
2017-09-19T07:57:19.277Z,60.2
2017-09-19T07:58:21.665Z,60.5
2017-09-19T07:59:24.087Z,60.3
2017-09-19T08:00:26.456Z,60.4
2017-09-19T08:01:28.853Z,60.4
2017-09-19T08:02:31.248Z,60.2
2017-09-19T08:03:33.636Z,60.4
2017-09-19T08:04:36.023Z,60.4
2017-09-19T08:05:38.426Z,60.3
2017-09-19T08:06:40.814Z,60.5
2017-09-19T08:07:43.205Z,60.4
2017-09-19T08:08:45.601Z,60.3
2017-09-19T08:09:47.995Z,60.3
2017-09-19T08:10:50.391Z,60.1
2017-09-19T08:11:52.789Z,60.2
2017-09-19T08:12:55.172Z,60.3
2017-09-19T08:13:57.567Z,60.4
2017-09-19T08:15:00.313Z,60.3
2017-09-19T08:16:02.706Z,60.5
2017-09-19T08:17:05.102Z,60.5
2017-09-19T08:18:07.488Z,60.7
2017-09-19T08:19:09.885Z,60.8
2017-09-19T08:20:12.286Z,61.1
2017-09-19T08:21:14.679Z,61.1
2017-09-19T08:22:17.080Z,61.3
2017-09-19T08:23:19.476Z,61.5
2017-09-19T08:24:21.872Z,61.7
2017-09-19T08:25:24.279Z,61.7
2017-09-19T08:26:26.679Z,61.9
2017-09-19T08:27:29.129Z,62.1
2017-09-19T08:28:31.981Z,62.4
2017-09-19T08:29:34.391Z,62.4
2017-09-19T08:30:37.125Z,62.4
2017-09-19T08:31:39.523Z,62.4
2017-09-19T08:32:41.920Z,62.6
2017-09-19T08:33:44.317Z,62.9
2017-09-19T08:34:46.709Z,63
2017-09-19T08:35:49.115Z,62.9
2017-09-19T08:36:51.499Z,63
2017-09-19T08:37:53.901Z,63.1
2017-09-19T08:38:56.649Z,63.1
2017-09-19T08:39:59.049Z,63
2017-09-19T08:41:01.456Z,62.8
2017-09-19T08:42:03.862Z,62
2017-09-19T08:43:06.598Z,61.6
2017-09-19T08:44:09.716Z,61.4
2017-09-19T08:45:12.454Z,60.9
2017-09-19T08:46:14.849Z,60.8
2017-09-19T08:47:17.252Z,60.5
2017-09-19T08:48:19.651Z,60.5
2017-09-19T08:49:22.040Z,60.5
2017-09-19T08:50:24.451Z,60.5
2017-09-19T08:51:26.845Z,60.5
2017-09-19T08:52:29.245Z,60.4
2017-09-19T08:53:31.989Z,60
2017-09-19T08:54:34.385Z,59.7
2017-09-19T08:55:36.781Z,59.6
2017-09-19T08:56:39.529Z,59.2
2017-09-19T08:57:42.266Z,59.4
2017-09-19T08:58:44.665Z,59.5
2017-09-19T08:59:47.065Z,59.5
2017-09-19T09:00:49.472Z,58.9
2017-09-19T09:01:51.870Z,58.3
2017-09-19T09:02:54.271Z,57.8
2017-09-19T09:03:56.681Z,57.5
2017-09-19T09:04:59.078Z,57.4
2017-09-19T09:06:01.817Z,57.3
2017-09-19T09:07:04.218Z,57.6
2017-09-19T09:08:06.618Z,57.5
2017-09-19T09:09:09.697Z,57.3
2017-09-19T09:10:12.447Z,56.9
2017-09-19T09:11:14.843Z,56.6
2017-09-19T09:12:17.244Z,56.4
2017-09-19T09:13:19.646Z,56.4
2017-09-19T09:14:22.047Z,56.7
2017-09-19T09:15:24.797Z,56.1
2017-09-19T09:16:27.204Z,55.9
2017-09-19T09:17:29.596Z,55.6
2017-09-19T09:18:32.005Z,55.3
2017-09-19T09:19:34.405Z,55.2
2017-09-19T09:20:37.136Z,55.2
2017-09-19T09:21:39.537Z,55.8
2017-09-19T09:22:41.935Z,56.6
2017-09-19T09:23:44.332Z,57
2017-09-19T09:24:46.735Z,57.2
2017-09-19T09:25:49.135Z,57.5
2017-09-19T09:26:51.526Z,57.6
2017-09-19T09:27:53.930Z,57.5
2017-09-19T09:28:56.334Z,57.6
2017-09-19T09:29:58.732Z,57.4
2017-09-19T09:31:01.134Z,57.2
2017-09-19T09:32:03.535Z,57.1
2017-09-19T09:33:05.926Z,57.2
2017-09-19T09:34:08.331Z,57.5
2017-09-19T09:35:10.739Z,57.7
2017-09-19T09:36:13.475Z,57.7
2017-09-19T09:37:15.882Z,58
2017-09-19T09:38:18.617Z,58
2017-09-19T09:39:21.017Z,57.7
2017-09-19T09:40:23.430Z,57.7
2017-09-19T09:41:25.833Z,57.7
2017-09-19T09:42:28.236Z,57.6
2017-09-19T09:43:30.650Z,56.7
2017-09-19T09:44:33.056Z,56.8
2017-09-19T09:45:35.447Z,57
2017-09-19T09:46:37.850Z,57.2
2017-09-19T09:47:40.248Z,56.8
2017-09-19T09:48:42.654Z,56.1
2017-09-19T09:49:45.061Z,55.9
2017-09-19T09:50:47.459Z,55.2
2017-09-19T09:51:49.869Z,54.8
2017-09-19T09:52:52.282Z,54.8
2017-09-19T09:53:54.696Z,54.8
2017-09-19T09:54:57.092Z,54.8
2017-09-19T09:55:59.516Z,54.9
2017-09-19T09:57:01.933Z,54.9
2017-09-19T09:58:04.329Z,55
2017-09-19T09:59:06.732Z,55.1
2017-09-19T10:00:09.485Z,55.1
2017-09-19T10:01:11.887Z,55.2
2017-09-19T10:02:14.286Z,55.3
2017-09-19T10:03:16.693Z,55.3
2017-09-19T10:04:19.096Z,55.4
2017-09-19T10:05:21.509Z,55
2017-09-19T10:06:23.918Z,54.9
2017-09-19T10:07:26.309Z,54.8
2017-09-19T10:08:29.060Z,54.6
2017-09-19T10:09:31.462Z,54
2017-09-19T10:10:33.869Z,54
2017-09-19T10:11:36.275Z,53.6
2017-09-19T10:12:38.681Z,53.6
2017-09-19T10:13:41.428Z,53.8
2017-09-19T10:14:43.843Z,53.5
2017-09-19T10:15:46.248Z,53.3
2017-09-19T10:16:48.650Z,53
2017-09-19T10:17:51.053Z,53.1
2017-09-19T10:18:53.474Z,53
2017-09-19T10:19:55.883Z,52.5
2017-09-19T10:20:58.295Z,52.4
2017-09-19T10:22:00.696Z,52.5
2017-09-19T10:23:03.102Z,52.6
2017-09-19T10:24:05.514Z,52.7
2017-09-19T10:25:07.920Z,52.6
2017-09-19T10:26:10.318Z,52.2
2017-09-19T10:27:12.719Z,52
2017-09-19T10:28:15.462Z,51.7
2017-09-19T10:29:17.870Z,51
2017-09-19T10:30:20.268Z,50.5
2017-09-19T10:31:22.687Z,50.3
2017-09-19T10:32:25.099Z,50.4
2017-09-19T10:33:27.498Z,50.3
2017-09-19T10:34:29.916Z,50.4
2017-09-19T10:35:32.325Z,50.4
2017-09-19T10:36:34.733Z,50.3
2017-09-19T10:37:37.140Z,50.2
2017-09-19T10:38:39.880Z,50
2017-09-19T10:39:42.282Z,49.9
2017-09-19T10:40:44.699Z,49.9
2017-09-19T10:41:47.095Z,49.8
2017-09-19T10:42:49.849Z,49.7
2017-09-19T10:43:52.256Z,49.7
2017-09-19T10:44:54.657Z,49.7
2017-09-19T10:45:57.061Z,49.8
2017-09-19T10:46:59.814Z,49.6
2017-09-19T10:48:02.203Z,49.9
2017-09-19T10:49:04.616Z,50
2017-09-19T10:50:07.019Z,50.1
2017-09-19T10:51:09.764Z,50.2
2017-09-19T10:52:12.165Z,50.3
2017-09-19T10:53:14.571Z,50.4
2017-09-19T10:54:16.972Z,50.4
2017-09-19T10:55:19.382Z,50.1
2017-09-19T10:56:21.785Z,50
2017-09-19T10:57:24.193Z,50.3
2017-09-19T10:58:26.601Z,50.1
2017-09-19T10:59:29.007Z,50
2017-09-19T11:00:31.419Z,49.9
2017-09-19T11:01:33.826Z,49.9
2017-09-19T11:02:36.237Z,49.7
2017-09-19T11:03:38.642Z,49.9
2017-09-19T11:04:41.048Z,49.8
2017-09-19T11:05:43.459Z,49.9
2017-09-19T11:06:45.857Z,49.3
2017-09-19T11:07:48.263Z,49.2
2017-09-19T11:08:50.668Z,48.6
2017-09-19T11:09:53.073Z,48.4
2017-09-19T11:10:55.477Z,48
2017-09-19T11:11:57.888Z,48.4
2017-09-19T11:13:00.301Z,48.6
2017-09-19T11:14:02.709Z,48.8
2017-09-19T11:15:05.121Z,49.1
2017-09-19T11:16:07.518Z,49.1
2017-09-19T11:17:10.261Z,48.9
2017-09-19T11:18:12.670Z,48.5
2017-09-19T11:19:15.079Z,48.4
2017-09-19T11:20:17.480Z,48
2017-09-19T11:21:19.877Z,48.3
2017-09-19T11:22:22.278Z,48.3
2017-09-19T11:23:24.687Z,47.9
2017-09-19T11:24:27.094Z,47.8
2017-09-19T11:25:29.490Z,47.9
2017-09-19T11:26:31.897Z,47.6
2017-09-19T11:27:34.298Z,48
2017-09-19T11:28:36.713Z,47.9
2017-09-19T11:29:39.121Z,48.1
2017-09-19T11:30:41.521Z,47.9
2017-09-19T11:31:43.933Z,48
2017-09-19T11:32:46.700Z,48
2017-09-19T11:33:49.470Z,47.6
2017-09-19T11:34:51.878Z,47.4
2017-09-19T11:35:54.277Z,47.5
2017-09-19T11:36:56.684Z,47.6
2017-09-19T11:37:59.091Z,47.2
2017-09-19T11:39:01.499Z,47.1
2017-09-19T11:40:03.898Z,47.1
2017-09-19T11:41:06.311Z,47.2
2017-09-19T11:42:09.046Z,47
2017-09-19T11:43:11.459Z,47
2017-09-19T11:44:13.872Z,46.9
2017-09-19T11:45:16.968Z,46.8
2017-09-19T11:46:19.374Z,46.8
2017-09-19T11:47:21.801Z,46.6
2017-09-19T11:48:24.535Z,46.5
2017-09-19T11:49:26.959Z,46.4
2017-09-19T11:50:29.367Z,46.4
2017-09-19T11:51:31.776Z,46.4
2017-09-19T11:52:34.182Z,46
2017-09-19T11:53:36.936Z,46.1
2017-09-19T11:54:39.338Z,46.1
2017-09-19T11:55:41.744Z,45.7
2017-09-19T11:56:44.160Z,45.5
2017-09-19T11:57:46.906Z,45.2
2017-09-19T11:58:49.317Z,45.4
2017-09-19T11:59:51.723Z,45.6
2017-09-19T12:00:54.129Z,45.7
2017-09-19T12:01:56.529Z,45.7
2017-09-19T12:02:58.940Z,45.5
2017-09-19T12:04:01.342Z,45.3
2017-09-19T12:05:04.432Z,45
2017-09-19T12:06:06.838Z,44.1
2017-09-19T12:07:09.252Z,44.5
2017-09-19T12:08:11.998Z,44.8
2017-09-19T12:09:14.405Z,44.8
2017-09-19T12:10:16.815Z,44.9
2017-09-19T12:11:19.231Z,44.9
2017-09-19T12:12:21.646Z,45.2
2017-09-19T12:13:24.048Z,45.4
2017-09-19T12:14:26.452Z,45.6
2017-09-19T12:15:28.862Z,45.8
2017-09-19T12:16:31.263Z,46
2017-09-19T12:17:33.665Z,45.7
2017-09-19T12:18:36.074Z,45.6
2017-09-19T12:19:38.481Z,45.8
2017-09-19T12:20:40.889Z,46
2017-09-19T12:21:43.297Z,46
2017-09-19T12:22:45.694Z,45.9
2017-09-19T12:23:48.100Z,45.9
2017-09-19T12:24:50.520Z,45.9
2017-09-19T12:25:53.259Z,45.7
2017-09-19T12:26:55.662Z,45.4
2017-09-19T12:27:58.073Z,45.2
2017-09-19T12:29:00.487Z,45.2
2017-09-19T12:30:02.894Z,45.2
2017-09-19T12:31:05.305Z,45
2017-09-19T12:32:07.708Z,45
2017-09-19T12:33:10.114Z,45.3
2017-09-19T12:34:12.519Z,45.6
2017-09-19T12:35:14.926Z,45.9
2017-09-19T12:36:17.332Z,46
2017-09-19T12:37:19.750Z,46.2
2017-09-19T12:38:22.157Z,46
2017-09-19T12:39:24.563Z,45.9
2017-09-19T12:40:26.967Z,45.9
2017-09-19T12:41:29.377Z,45.8
2017-09-19T12:42:32.125Z,45.9
2017-09-19T12:43:34.887Z,45.8
2017-09-19T12:44:37.636Z,45.7
2017-09-19T12:45:40.041Z,45.6
2017-09-19T12:46:42.453Z,45.6
2017-09-19T12:47:44.861Z,45.6
2017-09-19T12:48:47.274Z,45.7
2017-09-19T12:49:49.691Z,45.3
2017-09-19T12:50:52.434Z,44.9
2017-09-19T12:51:54.840Z,44.9
2017-09-19T12:52:57.249Z,45.1
2017-09-19T12:53:59.650Z,45.3
2017-09-19T12:55:02.058Z,45.2
2017-09-19T12:56:04.808Z,45.2
2017-09-19T12:57:07.207Z,45.2
2017-09-19T12:58:09.616Z,44.9
2017-09-19T12:59:12.026Z,45
2017-09-19T13:00:40.099Z,45.2
2017-09-19T13:01:42.514Z,45.4
2017-09-19T13:02:44.907Z,45.6
2017-09-19T13:03:47.322Z,45.6
2017-09-19T13:04:49.720Z,45.7
2017-09-19T13:05:52.120Z,45.6
2017-09-19T13:06:54.527Z,45.6
2017-09-19T13:07:56.934Z,45.4
2017-09-19T13:08:59.335Z,45.5
2017-09-19T13:10:01.747Z,45.5
2017-09-19T13:11:04.486Z,45.6
2017-09-19T13:12:06.900Z,45.7
2017-09-19T13:13:09.313Z,45.4
2017-09-19T13:14:11.709Z,44.7
2017-09-19T13:15:14.124Z,44.8
2017-09-19T13:16:16.534Z,44.7
2017-09-19T13:17:18.938Z,44.8
2017-09-19T13:18:21.349Z,44.8
2017-09-19T13:19:23.755Z,44.6
2017-09-19T13:20:26.152Z,44.6
2017-09-19T13:21:28.905Z,44.5
2017-09-19T13:22:31.316Z,44.5
2017-09-19T13:23:33.721Z,44.5
2017-09-19T13:24:36.132Z,44.6
2017-09-19T13:25:38.538Z,44.6
2017-09-19T13:26:40.945Z,44.4
2017-09-19T13:27:43.353Z,44
2017-09-19T13:28:46.452Z,44.1
2017-09-19T13:29:48.877Z,44.3
2017-09-19T13:30:51.941Z,44.4
2017-09-19T13:31:54.344Z,44.4
2017-09-19T13:32:57.109Z,44.4
2017-09-19T13:33:59.517Z,44.3
2017-09-19T13:35:01.930Z,44.3
2017-09-19T13:36:04.334Z,44.2
2017-09-19T13:37:06.736Z,44.3
2017-09-19T13:38:09.490Z,44.2
2017-09-19T13:39:12.230Z,44.3
2017-09-19T13:40:14.643Z,44.4
2017-09-19T13:41:17.049Z,44.2
2017-09-19T13:42:19.451Z,44.3
2017-09-19T13:43:21.868Z,44.4
2017-09-19T13:44:24.283Z,44.4
2017-09-19T13:45:26.718Z,44.6
2017-09-19T13:46:29.094Z,44.6
2017-09-19T13:47:31.494Z,44.7
2017-09-19T13:48:33.901Z,44.8
2017-09-19T13:49:36.310Z,44.9
2017-09-19T13:50:38.717Z,44.8
2017-09-19T13:51:41.115Z,44.8
2017-09-19T13:52:43.527Z,44.8
2017-09-19T13:54:50.179Z,44.8
2017-09-19T13:55:52.640Z,44.7
2017-09-19T13:56:55.161Z,44.6
2017-09-19T13:57:57.739Z,44.5
2017-09-19T13:59:00.548Z,44.7